sensor_id;sensor_type;location;lat;lon;timestamp;P1;durP1;ratioP1;P2;durP2;ratioP2
3881;SDS011;1956;53.482;10.238;2023-02-14T00:04:40;41.40;;;20.43;;
3881;SDS011;1956;53.482;10.238;2023-02-14T00:09:43;43.77;;;21.17;;
3881;SDS011;1956;53.482;10.238;2023-02-14T00:14:43;46.03;;;21.33;;
3881;SDS011;1956;53.482;10.238;2023-02-14T00:20:02;46.80;;;21.13;;
3881;SDS011;1956;53.482;10.238;2023-02-14T00:25:03;51.80;;;22.90;;
3881;SDS011;1956;53.482;10.238;2023-02-14T00:30:05;49.40;;;22.03;;
3881;SDS011;1956;53.482;10.238;2023-02-14T00:35:06;48.33;;;21.90;;
3881;SDS011;1956;53.482;10.238;2023-02-14T00:40:08;51.20;;;24.00;;
3881;SDS011;1956;53.482;10.238;2023-02-14T00:45:08;46.90;;;22.20;;
3881;SDS011;1956;53.482;10.238;2023-02-14T00:50:09;52.17;;;23.47;;
3881;SDS011;1956;53.482;10.238;2023-02-14T00:55:10;44.97;;;21.80;;
3881;SDS011;1956;53.482;10.238;2023-02-14T01:00:10;40.57;;;22.00;;
3881;SDS011;1956;53.482;10.238;2023-02-14T01:05:12;50.33;;;22.73;;
3881;SDS011;1956;53.482;10.238;2023-02-14T01:10:12;42.67;;;21.13;;
3881;SDS011;1956;53.482;10.238;2023-02-14T01:15:13;41.97;;;20.00;;
3881;SDS011;1956;53.482;10.238;2023-02-14T01:20:13;41.00;;;20.37;;
3881;SDS011;1956;53.482;10.238;2023-02-14T01:25:14;45.30;;;22.80;;
3881;SDS011;1956;53.482;10.238;2023-02-14T01:30:15;50.97;;;22.20;;
3881;SDS011;1956;53.482;10.238;2023-02-14T01:35:15;44.53;;;22.70;;
3881;SDS011;1956;53.482;10.238;2023-02-14T01:40:16;44.00;;;22.10;;
3881;SDS011;1956;53.482;10.238;2023-02-14T01:45:18;47.83;;;21.03;;
3881;SDS011;1956;53.482;10.238;2023-02-14T01:50:25;47.87;;;23.70;;
3881;SDS011;1956;53.482;10.238;2023-02-14T01:55:30;49.60;;;23.07;;
3881;SDS011;1956;53.482;10.238;2023-02-14T02:00:33;42.00;;;22.13;;
3881;SDS011;1956;53.482;10.238;2023-02-14T02:05:53;42.90;;;21.30;;
3881;SDS011;1956;53.482;10.238;2023-02-14T02:10:56;41.33;;;21.33;;
3881;SDS011;1956;53.482;10.238;2023-02-14T02:16:01;45.83;;;21.40;;
3881;SDS011;1956;53.482;10.238;2023-02-14T02:32:37;47.73;;;21.90;;
3881;SDS011;1956;53.482;10.238;2023-02-14T02:49:51;41.10;;;21.97;;
3881;SDS011;1956;53.482;10.238;2023-02-14T02:55:18;52.27;;;21.37;;
3881;SDS011;1956;53.482;10.238;2023-02-14T03:00:22;46.87;;;19.87;;
3881;SDS011;1956;53.482;10.238;2023-02-14T03:05:24;40.97;;;20.23;;
3881;SDS011;1956;53.482;10.238;2023-02-14T03:10:27;40.20;;;18.30;;
3881;SDS011;1956;53.482;10.238;2023-02-14T03:15:38;41.00;;;19.93;;
3881;SDS011;1956;53.482;10.238;2023-02-14T03:27:21;38.40;;;18.43;;
3881;SDS011;1956;53.482;10.238;2023-02-14T03:33:09;40.80;;;19.50;;
3881;SDS011;1956;53.482;10.238;2023-02-14T03:37:58;41.73;;;21.07;;
3881;SDS011;1956;53.482;10.238;2023-02-14T03:43:04;48.57;;;21.33;;
3881;SDS011;1956;53.482;10.238;2023-02-14T03:48:08;43.63;;;20.10;;
3881;SDS011;1956;53.482;10.238;2023-02-14T03:53:10;41.70;;;19.70;;
3881;SDS011;1956;53.482;10.238;2023-02-14T03:58:18;38.60;;;19.23;;
3881;SDS011;1956;53.482;10.238;2023-02-14T04:03:22;47.20;;;19.63;;
3881;SDS011;1956;53.482;10.238;2023-02-14T04:08:25;37.93;;;18.03;;
3881;SDS011;1956;53.482;10.238;2023-02-14T04:13:26;47.70;;;20.40;;
3881;SDS011;1956;53.482;10.238;2023-02-14T04:18:27;44.90;;;20.93;;
3881;SDS011;1956;53.482;10.238;2023-02-14T04:23:46;48.30;;;20.47;;
3881;SDS011;1956;53.482;10.238;2023-02-14T04:28:46;52.37;;;21.83;;
3881;SDS011;1956;53.482;10.238;2023-02-14T04:33:46;48.60;;;21.33;;
3881;SDS011;1956;53.482;10.238;2023-02-14T04:38:47;67.40;;;24.70;;
3881;SDS011;1956;53.482;10.238;2023-02-14T04:43:47;51.27;;;23.07;;
3881;SDS011;1956;53.482;10.238;2023-02-14T04:48:47;55.27;;;24.30;;
3881;SDS011;1956;53.482;10.238;2023-02-14T04:53:48;56.17;;;25.03;;
3881;SDS011;1956;53.482;10.238;2023-02-14T04:58:48;53.27;;;24.23;;
3881;SDS011;1956;53.482;10.238;2023-02-14T05:03:48;64.33;;;26.43;;
3881;SDS011;1956;53.482;10.238;2023-02-14T05:08:49;61.60;;;25.20;;
3881;SDS011;1956;53.482;10.238;2023-02-14T05:13:49;58.93;;;23.47;;
3881;SDS011;1956;53.482;10.238;2023-02-14T05:18:50;53.87;;;24.10;;
3881;SDS011;1956;53.482;10.238;2023-02-14T05:23:50;56.10;;;23.10;;
3881;SDS011;1956;53.482;10.238;2023-02-14T05:28:50;45.00;;;21.23;;
3881;SDS011;1956;53.482;10.238;2023-02-14T05:33:51;56.33;;;25.10;;
3881;SDS011;1956;53.482;10.238;2023-02-14T05:38:51;50.67;;;23.03;;
3881;SDS011;1956;53.482;10.238;2023-02-14T05:43:52;54.10;;;23.37;;
3881;SDS011;1956;53.482;10.238;2023-02-14T05:48:52;56.63;;;24.40;;
3881;SDS011;1956;53.482;10.238;2023-02-14T05:53:52;61.43;;;24.10;;
3881;SDS011;1956;53.482;10.238;2023-02-14T05:58:53;48.20;;;22.50;;
3881;SDS011;1956;53.482;10.238;2023-02-14T06:03:53;49.13;;;22.73;;
3881;SDS011;1956;53.482;10.238;2023-02-14T06:08:53;55.20;;;23.57;;
3881;SDS011;1956;53.482;10.238;2023-02-14T06:13:54;49.87;;;22.20;;
3881;SDS011;1956;53.482;10.238;2023-02-14T06:18:54;42.97;;;21.37;;
3881;SDS011;1956;53.482;10.238;2023-02-14T06:23:55;63.53;;;24.30;;
3881;SDS011;1956;53.482;10.238;2023-02-14T06:28:56;61.80;;;25.03;;
3881;SDS011;1956;53.482;10.238;2023-02-14T06:33:57;49.23;;;23.43;;
3881;SDS011;1956;53.482;10.238;2023-02-14T06:38:57;54.83;;;23.83;;
3881;SDS011;1956;53.482;10.238;2023-02-14T06:43:57;59.97;;;24.80;;
3881;SDS011;1956;53.482;10.238;2023-02-14T06:48:58;50.60;;;23.03;;
3881;SDS011;1956;53.482;10.238;2023-02-14T06:53:58;58.10;;;25.33;;
3881;SDS011;1956;53.482;10.238;2023-02-14T06:58:59;51.03;;;23.63;;
3881;SDS011;1956;53.482;10.238;2023-02-14T07:03:59;67.13;;;23.80;;
3881;SDS011;1956;53.482;10.238;2023-02-14T07:09:00;51.20;;;25.33;;
3881;SDS011;1956;53.482;10.238;2023-02-14T07:14:00;57.10;;;26.23;;
3881;SDS011;1956;53.482;10.238;2023-02-14T07:19:01;53.70;;;23.30;;
3881;SDS011;1956;53.482;10.238;2023-02-14T07:24:01;53.53;;;24.33;;
3881;SDS011;1956;53.482;10.238;2023-02-14T07:29:01;56.63;;;24.43;;
3881;SDS011;1956;53.482;10.238;2023-02-14T07:34:02;67.03;;;26.27;;
3881;SDS011;1956;53.482;10.238;2023-02-14T07:39:02;56.60;;;24.77;;
3881;SDS011;1956;53.482;10.238;2023-02-14T07:44:03;56.20;;;24.33;;
3881;SDS011;1956;53.482;10.238;2023-02-14T07:49:03;52.07;;;22.97;;
3881;SDS011;1956;53.482;10.238;2023-02-14T07:54:03;54.77;;;23.70;;
3881;SDS011;1956;53.482;10.238;2023-02-14T07:59:04;46.33;;;21.83;;
3881;SDS011;1956;53.482;10.238;2023-02-14T08:04:04;51.83;;;23.00;;
3881;SDS011;1956;53.482;10.238;2023-02-14T08:09:05;46.23;;;22.20;;
3881;SDS011;1956;53.482;10.238;2023-02-14T08:14:05;52.10;;;24.23;;
3881;SDS011;1956;53.482;10.238;2023-02-14T08:19:06;41.87;;;19.50;;
3881;SDS011;1956;53.482;10.238;2023-02-14T08:24:06;40.43;;;19.30;;
3881;SDS011;1956;53.482;10.238;2023-02-14T08:29:07;35.67;;;18.10;;
3881;SDS011;1956;53.482;10.238;2023-02-14T08:34:07;44.07;;;19.33;;
3881;SDS011;1956;53.482;10.238;2023-02-14T08:39:08;37.00;;;20.30;;
3881;SDS011;1956;53.482;10.238;2023-02-14T08:44:08;42.80;;;19.40;;
3881;SDS011;1956;53.482;10.238;2023-02-14T08:49:08;39.30;;;18.30;;
3881;SDS011;1956;53.482;10.238;2023-02-14T08:54:09;47.40;;;20.40;;
3881;SDS011;1956;53.482;10.238;2023-02-14T08:59:09;46.90;;;19.23;;
3881;SDS011;1956;53.482;10.238;2023-02-14T09:04:10;34.53;;;19.27;;
3881;SDS011;1956;53.482;10.238;2023-02-14T09:09:10;40.80;;;19.47;;
3881;SDS011;1956;53.482;10.238;2023-02-14T09:14:10;31.97;;;17.67;;
3881;SDS011;1956;53.482;10.238;2023-02-14T09:19:11;32.37;;;18.47;;
3881;SDS011;1956;53.482;10.238;2023-02-14T09:24:11;32.20;;;18.83;;
3881;SDS011;1956;53.482;10.238;2023-02-14T09:29:12;32.30;;;18.07;;
3881;SDS011;1956;53.482;10.238;2023-02-14T09:34:17;28.30;;;17.73;;
3881;SDS011;1956;53.482;10.238;2023-02-14T09:39:18;32.20;;;18.63;;
3881;SDS011;1956;53.482;10.238;2023-02-14T09:44:32;32.00;;;18.10;;
3881;SDS011;1956;53.482;10.238;2023-02-14T09:49:55;30.80;;;19.60;;
3881;SDS011;1956;53.482;10.238;2023-02-14T09:54:58;31.13;;;17.93;;
3881;SDS011;1956;53.482;10.238;2023-02-14T10:00:44;34.03;;;19.20;;
3881;SDS011;1956;53.482;10.238;2023-02-14T10:05:47;33.23;;;18.93;;
3881;SDS011;1956;53.482;10.238;2023-02-14T10:11:13;29.00;;;17.47;;
3881;SDS011;1956;53.482;10.238;2023-02-14T10:16:23;33.07;;;18.67;;
3881;SDS011;1956;53.482;10.238;2023-02-14T10:21:39;29.27;;;16.07;;
3881;SDS011;1956;53.482;10.238;2023-02-14T10:26:41;26.17;;;16.20;;
3881;SDS011;1956;53.482;10.238;2023-02-14T10:31:57;29.90;;;18.10;;
3881;SDS011;1956;53.482;10.238;2023-02-14T10:37:02;29.40;;;16.63;;
3881;SDS011;1956;53.482;10.238;2023-02-14T10:48:10;26.03;;;16.17;;
3881;SDS011;1956;53.482;10.238;2023-02-14T10:59:29;28.40;;;17.00;;
3881;SDS011;1956;53.482;10.238;2023-02-14T11:04:32;26.37;;;17.23;;
3881;SDS011;1956;53.482;10.238;2023-02-14T11:09:34;29.30;;;17.97;;
3881;SDS011;1956;53.482;10.238;2023-02-14T11:14:35;31.43;;;18.43;;
3881;SDS011;1956;53.482;10.238;2023-02-14T11:19:37;28.57;;;18.13;;
3881;SDS011;1956;53.482;10.238;2023-02-14T11:24:38;33.83;;;19.57;;
3881;SDS011;1956;53.482;10.238;2023-02-14T11:29:44;29.43;;;18.20;;
3881;SDS011;1956;53.482;10.238;2023-02-14T11:40:24;32.13;;;18.00;;
3881;SDS011;1956;53.482;10.238;2023-02-14T11:45:33;27.50;;;17.20;;
3881;SDS011;1956;53.482;10.238;2023-02-14T11:50:35;31.93;;;19.37;;
3881;SDS011;1956;53.482;10.238;2023-02-14T11:55:36;32.77;;;19.17;;
3881;SDS011;1956;53.482;10.238;2023-02-14T12:00:37;27.83;;;17.50;;
3881;SDS011;1956;53.482;10.238;2023-02-14T12:05:44;29.93;;;18.23;;
3881;SDS011;1956;53.482;10.238;2023-02-14T12:10:59;25.87;;;16.40;;
3881;SDS011;1956;53.482;10.238;2023-02-14T12:16:00;26.40;;;17.40;;
3881;SDS011;1956;53.482;10.238;2023-02-14T12:26:44;28.73;;;17.13;;
3881;SDS011;1956;53.482;10.238;2023-02-14T12:31:47;26.60;;;17.10;;
3881;SDS011;1956;53.482;10.238;2023-02-14T12:49:02;31.90;;;19.27;;
3881;SDS011;1956;53.482;10.238;2023-02-14T12:54:31;28.77;;;17.10;;
3881;SDS011;1956;53.482;10.238;2023-02-14T13:00:15;27.80;;;16.90;;
3881;SDS011;1956;53.482;10.238;2023-02-14T13:05:44;27.50;;;16.40;;
3881;SDS011;1956;53.482;10.238;2023-02-14T13:16:44;28.00;;;17.20;;
3881;SDS011;1956;53.482;10.238;2023-02-14T13:22:09;21.23;;;14.80;;
3881;SDS011;1956;53.482;10.238;2023-02-14T13:27:20;26.80;;;15.87;;
3881;SDS011;1956;53.482;10.238;2023-02-14T13:32:23;23.73;;;15.10;;
3881;SDS011;1956;53.482;10.238;2023-02-14T13:37:26;33.93;;;16.27;;
3881;SDS011;1956;53.482;10.238;2023-02-14T13:42:49;24.00;;;15.37;;
3881;SDS011;1956;53.482;10.238;2023-02-14T13:48:00;25.30;;;16.33;;
3881;SDS011;1956;53.482;10.238;2023-02-14T13:53:02;22.47;;;15.33;;
3881;SDS011;1956;53.482;10.238;2023-02-14T13:58:03;27.20;;;17.63;;
3881;SDS011;1956;53.482;10.238;2023-02-14T14:03:06;25.60;;;15.93;;
3881;SDS011;1956;53.482;10.238;2023-02-14T14:13:56;25.53;;;15.53;;
3881;SDS011;1956;53.482;10.238;2023-02-14T14:24:37;24.43;;;15.47;;
3881;SDS011;1956;53.482;10.238;2023-02-14T14:29:54;23.13;;;15.23;;
3881;SDS011;1956;53.482;10.238;2023-02-14T14:34:58;24.40;;;16.13;;
3881;SDS011;1956;53.482;10.238;2023-02-14T14:40:01;24.13;;;15.23;;
3881;SDS011;1956;53.482;10.238;2023-02-14T14:45:07;29.83;;;17.27;;
3881;SDS011;1956;53.482;10.238;2023-02-14T14:50:24;26.93;;;16.47;;
3881;SDS011;1956;53.482;10.238;2023-02-14T14:55:27;23.17;;;15.60;;
3881;SDS011;1956;53.482;10.238;2023-02-14T15:00:30;25.97;;;15.90;;
3881;SDS011;1956;53.482;10.238;2023-02-14T15:05:36;27.70;;;16.30;;
3881;SDS011;1956;53.482;10.238;2023-02-14T15:10:57;22.00;;;14.23;;
3881;SDS011;1956;53.482;10.238;2023-02-14T15:16:01;22.50;;;15.27;;
3881;SDS011;1956;53.482;10.238;2023-02-14T15:21:01;24.27;;;14.70;;
3881;SDS011;1956;53.482;10.238;2023-02-14T15:26:02;25.90;;;15.70;;
3881;SDS011;1956;53.482;10.238;2023-02-14T15:31:03;27.03;;;15.97;;
3881;SDS011;1956;53.482;10.238;2023-02-14T15:36:07;25.30;;;15.90;;
3881;SDS011;1956;53.482;10.238;2023-02-14T15:41:07;28.43;;;16.33;;
3881;SDS011;1956;53.482;10.238;2023-02-14T15:46:13;23.70;;;14.47;;
3881;SDS011;1956;53.482;10.238;2023-02-14T15:51:34;22.03;;;14.47;;
3881;SDS011;1956;53.482;10.238;2023-02-14T15:56:41;27.00;;;14.73;;
3881;SDS011;1956;53.482;10.238;2023-02-14T16:01:47;21.73;;;13.40;;
3881;SDS011;1956;53.482;10.238;2023-02-14T16:07:03;24.47;;;15.67;;
3881;SDS011;1956;53.482;10.238;2023-02-14T16:12:30;30.90;;;16.20;;
3881;SDS011;1956;53.482;10.238;2023-02-14T16:17:35;24.63;;;14.00;;
3881;SDS011;1956;53.482;10.238;2023-02-14T16:22:36;27.60;;;16.20;;
3881;SDS011;1956;53.482;10.238;2023-02-14T16:27:36;22.33;;;14.20;;
3881;SDS011;1956;53.482;10.238;2023-02-14T16:32:36;28.00;;;15.40;;
3881;SDS011;1956;53.482;10.238;2023-02-14T16:37:37;31.93;;;17.30;;
3881;SDS011;1956;53.482;10.238;2023-02-14T16:42:38;36.53;;;17.87;;
3881;SDS011;1956;53.482;10.238;2023-02-14T16:47:38;27.23;;;14.73;;
3881;SDS011;1956;53.482;10.238;2023-02-14T16:52:39;33.40;;;17.50;;
3881;SDS011;1956;53.482;10.238;2023-02-14T16:57:40;31.70;;;16.10;;
3881;SDS011;1956;53.482;10.238;2023-02-14T17:02:42;30.90;;;16.80;;
3881;SDS011;1956;53.482;10.238;2023-02-14T17:07:42;31.43;;;15.00;;
3881;SDS011;1956;53.482;10.238;2023-02-14T17:12:43;31.43;;;15.73;;
3881;SDS011;1956;53.482;10.238;2023-02-14T17:17:46;33.40;;;15.57;;
3881;SDS011;1956;53.482;10.238;2023-02-14T17:22:47;27.80;;;14.20;;
3881;SDS011;1956;53.482;10.238;2023-02-14T17:27:48;31.70;;;16.03;;
3881;SDS011;1956;53.482;10.238;2023-02-14T17:32:48;41.60;;;18.47;;
3881;SDS011;1956;53.482;10.238;2023-02-14T17:37:49;33.37;;;16.40;;
3881;SDS011;1956;53.482;10.238;2023-02-14T17:42:49;40.50;;;18.40;;
3881;SDS011;1956;53.482;10.238;2023-02-14T17:47:49;37.23;;;17.03;;
3881;SDS011;1956;53.482;10.238;2023-02-14T17:52:56;42.80;;;19.60;;
3881;SDS011;1956;53.482;10.238;2023-02-14T17:57:56;44.07;;;19.27;;
3881;SDS011;1956;53.482;10.238;2023-02-14T18:02:57;35.83;;;19.57;;
3881;SDS011;1956;53.482;10.238;2023-02-14T18:07:58;39.27;;;19.17;;
3881;SDS011;1956;53.482;10.238;2023-02-14T18:12:58;42.90;;;20.70;;
3881;SDS011;1956;53.482;10.238;2023-02-14T18:17:58;39.97;;;19.93;;
3881;SDS011;1956;53.482;10.238;2023-02-14T18:22:59;49.13;;;21.77;;
3881;SDS011;1956;53.482;10.238;2023-02-14T18:28:01;41.00;;;21.57;;
3881;SDS011;1956;53.482;10.238;2023-02-14T18:33:01;40.37;;;22.30;;
3881;SDS011;1956;53.482;10.238;2023-02-14T18:38:02;38.83;;;23.37;;
3881;SDS011;1956;53.482;10.238;2023-02-14T18:43:02;45.60;;;24.07;;
3881;SDS011;1956;53.482;10.238;2023-02-14T18:48:03;44.27;;;24.93;;
3881;SDS011;1956;53.482;10.238;2023-02-14T18:53:04;47.47;;;23.03;;
3881;SDS011;1956;53.482;10.238;2023-02-14T18:58:04;43.13;;;24.27;;
3881;SDS011;1956;53.482;10.238;2023-02-14T19:03:05;49.20;;;25.70;;
3881;SDS011;1956;53.482;10.238;2023-02-14T19:08:06;45.30;;;23.23;;
3881;SDS011;1956;53.482;10.238;2023-02-14T19:13:07;49.90;;;27.57;;
3881;SDS011;1956;53.482;10.238;2023-02-14T19:18:07;53.70;;;26.87;;
3881;SDS011;1956;53.482;10.238;2023-02-14T19:23:08;60.60;;;29.30;;
3881;SDS011;1956;53.482;10.238;2023-02-14T19:28:08;53.97;;;30.20;;
3881;SDS011;1956;53.482;10.238;2023-02-14T19:33:10;61.27;;;29.30;;
3881;SDS011;1956;53.482;10.238;2023-02-14T19:38:10;59.97;;;28.07;;
3881;SDS011;1956;53.482;10.238;2023-02-14T19:43:11;56.20;;;27.53;;
3881;SDS011;1956;53.482;10.238;2023-02-14T19:48:11;57.27;;;29.17;;
3881;SDS011;1956;53.482;10.238;2023-02-14T19:53:11;51.47;;;28.33;;
3881;SDS011;1956;53.482;10.238;2023-02-14T19:58:12;66.33;;;30.60;;
3881;SDS011;1956;53.482;10.238;2023-02-14T20:03:12;66.20;;;30.47;;
3881;SDS011;1956;53.482;10.238;2023-02-14T20:08:12;67.27;;;34.03;;
3881;SDS011;1956;53.482;10.238;2023-02-14T20:13:13;69.30;;;32.67;;
3881;SDS011;1956;53.482;10.238;2023-02-14T20:18:13;63.13;;;31.40;;
3881;SDS011;1956;53.482;10.238;2023-02-14T20:23:13;69.53;;;33.90;;
3881;SDS011;1956;53.482;10.238;2023-02-14T20:28:14;67.63;;;32.17;;
3881;SDS011;1956;53.482;10.238;2023-02-14T20:33:14;63.93;;;30.50;;
3881;SDS011;1956;53.482;10.238;2023-02-14T20:38:15;70.17;;;30.80;;
3881;SDS011;1956;53.482;10.238;2023-02-14T20:43:15;79.17;;;38.57;;
3881;SDS011;1956;53.482;10.238;2023-02-14T20:48:16;77.37;;;31.83;;
3881;SDS011;1956;53.482;10.238;2023-02-14T20:53:16;64.53;;;30.73;;
3881;SDS011;1956;53.482;10.238;2023-02-14T20:58:17;68.90;;;33.27;;
3881;SDS011;1956;53.482;10.238;2023-02-14T21:03:18;79.80;;;34.23;;
3881;SDS011;1956;53.482;10.238;2023-02-14T21:08:18;77.47;;;34.60;;
3881;SDS011;1956;53.482;10.238;2023-02-14T21:13:19;85.80;;;35.80;;
3881;SDS011;1956;53.482;10.238;2023-02-14T21:18:19;84.73;;;36.93;;
3881;SDS011;1956;53.482;10.238;2023-02-14T21:23:20;84.00;;;35.50;;
3881;SDS011;1956;53.482;10.238;2023-02-14T21:28:21;99.03;;;41.00;;
3881;SDS011;1956;53.482;10.238;2023-02-14T21:33:21;102.03;;;43.87;;
3881;SDS011;1956;53.482;10.238;2023-02-14T21:38:24;137.90;;;48.60;;
3881;SDS011;1956;53.482;10.238;2023-02-14T21:43:24;134.37;;;47.30;;
3881;SDS011;1956;53.482;10.238;2023-02-14T21:48:25;118.30;;;47.17;;
3881;SDS011;1956;53.482;10.238;2023-02-14T21:53:44;107.27;;;45.07;;
3881;SDS011;1956;53.482;10.238;2023-02-14T21:58:49;132.73;;;45.50;;
3881;SDS011;1956;53.482;10.238;2023-02-14T22:03:50;132.23;;;47.70;;
3881;SDS011;1956;53.482;10.238;2023-02-14T22:08:51;134.30;;;47.77;;
3881;SDS011;1956;53.482;10.238;2023-02-14T22:13:53;244.87;;;54.97;;
3881;SDS011;1956;53.482;10.238;2023-02-14T22:18:54;213.80;;;50.63;;
3881;SDS011;1956;53.482;10.238;2023-02-14T22:23:55;554.37;;;72.00;;
3881;SDS011;1956;53.482;10.238;2023-02-14T22:28:59;437.10;;;69.47;;
3881;SDS011;1956;53.482;10.238;2023-02-14T22:34:00;360.97;;;57.73;;
3881;SDS011;1956;53.482;10.238;2023-02-14T22:39:01;774.10;;;90.90;;
3881;SDS011;1956;53.482;10.238;2023-02-14T22:44:01;678.37;;;83.40;;
3881;SDS011;1956;53.482;10.238;2023-02-14T22:49:02;577.10;;;79.37;;
3881;SDS011;1956;53.482;10.238;2023-02-14T22:54:08;386.43;;;59.70;;
3881;SDS011;1956;53.482;10.238;2023-02-14T22:59:15;368.13;;;69.43;;
3881;SDS011;1956;53.482;10.238;2023-02-14T23:04:20;206.87;;;54.13;;
3881;SDS011;1956;53.482;10.238;2023-02-14T23:09:22;284.37;;;58.27;;
3881;SDS011;1956;53.482;10.238;2023-02-14T23:14:23;528.00;;;71.90;;
3881;SDS011;1956;53.482;10.238;2023-02-14T23:19:42;189.93;;;50.37;;
3881;SDS011;1956;53.482;10.238;2023-02-14T23:25:03;151.13;;;48.87;;
3881;SDS011;1956;53.482;10.238;2023-02-14T23:30:05;184.03;;;51.67;;
3881;SDS011;1956;53.482;10.238;2023-02-14T23:35:07;472.00;;;69.77;;
3881;SDS011;1956;53.482;10.238;2023-02-14T23:40:07;194.20;;;52.97;;
3881;SDS011;1956;53.482;10.238;2023-02-14T23:45:08;705.17;;;90.17;;
3881;SDS011;1956;53.482;10.238;2023-02-14T23:50:27;187.00;;;52.23;;
3881;SDS011;1956;53.482;10.238;2023-02-14T23:55:28;231.47;;;52.03;;
